createdAt,value
2018-08-04T00:02:22.632Z,2.90
2018-08-04T00:04:50.948Z,5.17
2018-08-04T00:07:19.317Z,3.77
2018-08-04T00:09:47.671Z,4.23
2018-08-04T00:12:16.011Z,2.50
2018-08-04T00:14:44.389Z,2.37
2018-08-04T00:17:12.755Z,5.97
2018-08-04T00:19:41.148Z,4.80
2018-08-04T00:22:09.495Z,3.67
2018-08-04T00:24:37.829Z,3.77
2018-08-04T00:27:06.271Z,4.57
2018-08-04T00:29:34.617Z,3.37
2018-08-04T00:32:02.958Z,7.23
2018-08-04T00:34:31.301Z,4.40
2018-08-04T00:36:59.663Z,3.90
2018-08-04T00:39:28.013Z,4.53
2018-08-04T00:41:56.388Z,3.80
2018-08-04T00:44:24.730Z,3.40
2018-08-04T00:46:53.039Z,5.00
2018-08-04T00:49:21.070Z,3.90
2018-08-04T00:51:49.389Z,3.67
2018-08-04T00:54:17.724Z,5.07
2018-08-04T00:56:46.084Z,5.07
2018-08-04T00:59:14.412Z,7.00
2018-08-04T01:01:42.768Z,3.77
2018-08-04T01:04:11.239Z,5.13
2018-08-04T01:06:39.560Z,4.70
2018-08-04T01:09:09.005Z,3.17
2018-08-04T01:11:37.421Z,6.00
2018-08-04T01:14:05.771Z,5.13
2018-08-04T01:16:34.160Z,3.43
2018-08-04T01:19:02.494Z,3.63
2018-08-04T01:21:30.975Z,4.07
2018-08-04T01:23:59.385Z,4.00
2018-08-04T01:26:27.730Z,5.00
2018-08-04T01:28:56.105Z,3.53
2018-08-04T01:31:24.454Z,4.10
2018-08-04T01:33:52.885Z,4.40
2018-08-04T01:36:21.185Z,3.67
2018-08-04T01:38:49.509Z,5.10
2018-08-04T01:41:18.044Z,4.27
2018-08-04T01:43:46.400Z,5.73
2018-08-04T01:46:14.451Z,4.27
2018-08-04T01:48:42.839Z,4.13
2018-08-04T01:51:11.196Z,3.37
2018-08-04T01:53:39.271Z,4.10
2018-08-04T01:56:08.670Z,3.40
2018-08-04T01:58:36.714Z,6.80
2018-08-04T02:01:05.058Z,6.17
2018-08-04T02:03:33.736Z,4.67
2018-08-04T02:06:02.062Z,4.40
2018-08-04T02:08:30.413Z,3.50
2018-08-04T02:10:58.735Z,5.23
2018-08-04T02:13:27.119Z,3.17
2018-08-04T02:15:55.482Z,3.73
2018-08-04T02:18:23.819Z,3.53
2018-08-04T02:20:52.178Z,5.90
2018-08-04T02:23:20.549Z,4.00
2018-08-04T02:25:48.852Z,4.33
2018-08-04T02:28:16.894Z,2.90
2018-08-04T02:30:45.238Z,3.03
2018-08-04T02:33:13.754Z,5.13
2018-08-04T02:35:42.788Z,3.50
2018-08-04T02:38:11.786Z,3.23
2018-08-04T02:40:40.880Z,3.17
2018-08-04T02:43:09.869Z,3.27
2018-08-04T02:45:38.221Z,3.40
2018-08-04T02:48:06.586Z,2.90
2018-08-04T02:50:35.042Z,4.43
2018-08-04T02:53:03.116Z,2.57
2018-08-04T02:55:31.450Z,3.70
2018-08-04T02:57:59.787Z,4.60
2018-08-04T03:00:28.121Z,3.90
2018-08-04T03:02:56.473Z,3.20
2018-08-04T03:05:24.852Z,2.73
2018-08-04T03:07:53.208Z,5.60
2018-08-04T03:10:21.581Z,3.10
2018-08-04T03:12:49.918Z,4.10
2018-08-04T03:15:18.319Z,5.43
2018-08-04T03:17:46.694Z,4.70
2018-08-04T03:20:15.091Z,5.10
2018-08-04T03:22:43.410Z,3.90
2018-08-04T03:25:11.827Z,4.80
2018-08-04T03:27:40.277Z,5.70
2018-08-04T03:30:08.373Z,5.00
2018-08-04T03:32:36.710Z,4.87
2018-08-04T03:35:05.294Z,4.53
2018-08-04T03:37:33.689Z,4.77
2018-08-04T03:40:02.053Z,7.30
2018-08-04T03:42:30.426Z,4.77
2018-08-04T03:44:58.784Z,4.57
2018-08-04T03:47:27.140Z,4.63
2018-08-04T03:49:55.469Z,4.53
2018-08-04T03:52:23.839Z,4.40
2018-08-04T03:54:52.249Z,4.03
2018-08-04T03:57:20.658Z,4.40
2018-08-04T03:59:48.986Z,4.33
2018-08-04T04:02:17.384Z,5.80
2018-08-04T04:04:45.709Z,6.77
2018-08-04T04:07:14.026Z,6.27
2018-08-04T04:09:42.393Z,5.60
2018-08-04T04:12:10.731Z,4.33
2018-08-04T04:14:39.066Z,5.07
2018-08-04T04:17:07.423Z,4.57
2018-08-04T04:19:35.793Z,5.20
2018-08-04T04:22:04.128Z,4.27
2018-08-04T04:24:32.476Z,6.27
2018-08-04T04:27:00.859Z,6.87
2018-08-04T04:29:29.209Z,4.37
2018-08-04T04:31:57.608Z,6.73
2018-08-04T04:34:26.073Z,4.07
2018-08-04T04:36:54.434Z,5.53
2018-08-04T04:39:22.757Z,3.60
2018-08-04T04:41:51.080Z,6.80
2018-08-04T04:44:19.420Z,4.30
2018-08-04T04:46:47.463Z,4.03
2018-08-04T04:49:15.821Z,5.10
2018-08-04T04:51:44.149Z,4.67
2018-08-04T04:54:12.510Z,8.00
2018-08-04T04:56:40.860Z,4.00
2018-08-04T04:59:09.205Z,5.03
2018-08-04T05:01:37.592Z,5.83
2018-08-04T05:04:06.130Z,4.73
2018-08-04T05:06:34.457Z,5.10
2018-08-04T05:09:03.119Z,5.30
2018-08-04T05:11:31.451Z,6.27
2018-08-04T05:13:59.785Z,6.37
2018-08-04T05:16:28.105Z,5.43
2018-08-04T05:18:56.421Z,4.87
2018-08-04T05:21:24.753Z,5.50
2018-08-04T05:23:53.106Z,5.37
2018-08-04T05:26:21.442Z,4.53
2018-08-04T05:28:50.020Z,8.10
2018-08-04T05:31:18.405Z,5.13
2018-08-04T05:33:47.107Z,5.10
2018-08-04T05:36:15.469Z,5.63
2018-08-04T05:38:43.797Z,5.13
2018-08-04T05:41:12.977Z,5.03
2018-08-04T05:43:41.351Z,5.17
2018-08-04T05:46:09.429Z,6.17
2018-08-04T05:48:37.802Z,5.50
2018-08-04T05:51:06.562Z,5.07
2018-08-04T05:53:34.904Z,5.47
2018-08-04T05:56:03.329Z,5.53
2018-08-04T05:58:31.697Z,8.10
2018-08-04T06:01:00.076Z,6.90
2018-08-04T06:03:28.400Z,5.80
2018-08-04T06:05:57.136Z,4.87
2018-08-04T06:08:25.575Z,7.17
2018-08-04T06:10:53.835Z,6.63
2018-08-04T06:13:22.407Z,4.17
2018-08-04T06:15:51.392Z,5.50
2018-08-04T06:18:19.891Z,4.83
2018-08-04T06:22:17.655Z,7.17
2018-08-04T06:24:46.121Z,4.80
2018-08-04T06:27:14.596Z,4.37
2018-08-04T06:29:42.934Z,6.43
2018-08-04T06:32:11.309Z,4.30
2018-08-04T06:34:39.790Z,4.87
2018-08-04T06:37:08.481Z,4.10
2018-08-04T06:39:37.259Z,4.23
2018-08-04T06:42:05.930Z,4.00
2018-08-04T06:44:34.518Z,4.83
2018-08-04T06:47:03.117Z,4.27
2018-08-04T06:49:32.381Z,7.07
2018-08-04T06:52:00.860Z,4.60
2018-08-04T06:54:29.409Z,3.90
2018-08-04T06:56:58.156Z,5.33
2018-08-04T06:59:27.148Z,4.37
2018-08-04T07:01:55.708Z,5.50
2018-08-04T07:04:24.112Z,4.00
2018-08-04T07:06:52.549Z,4.00
2018-08-04T07:09:20.990Z,4.40
2018-08-04T07:11:49.593Z,4.47
2018-08-04T07:14:17.730Z,5.33
2018-08-04T07:16:46.287Z,3.60
2018-08-04T07:19:14.752Z,4.53
2018-08-04T07:21:43.204Z,6.33
2018-08-04T07:24:11.692Z,4.67
2018-08-04T07:26:40.053Z,4.67
2018-08-04T07:29:08.629Z,3.13
2018-08-04T07:31:37.035Z,3.10
2018-08-04T07:34:05.413Z,4.07
2018-08-04T07:36:33.764Z,3.33
2018-08-04T07:39:02.065Z,2.77
2018-08-04T07:41:30.390Z,3.30
2018-08-04T07:43:58.805Z,3.40
2018-08-04T07:46:27.169Z,2.70
2018-08-04T07:48:55.625Z,4.73
2018-08-04T07:51:23.960Z,3.27
2018-08-04T07:53:52.378Z,3.47
2018-08-04T07:56:20.892Z,3.43
2018-08-04T07:58:49.223Z,5.00
2018-08-04T08:01:17.833Z,2.60
2018-08-04T08:03:46.555Z,3.23
2018-08-04T08:06:15.120Z,2.57
2018-08-04T08:08:43.623Z,3.67
2018-08-04T08:11:12.205Z,2.70
2018-08-04T08:13:40.500Z,3.37
2018-08-04T08:16:09.168Z,3.13
2018-08-04T08:18:37.532Z,3.10
2018-08-04T08:21:06.140Z,3.57
2018-08-04T08:23:34.497Z,1.87
2018-08-04T08:26:12.640Z,3.47
2018-08-04T08:28:41.837Z,1.70
2018-08-04T08:31:10.329Z,2.10
2018-08-04T08:33:39.706Z,2.13
2018-08-04T08:36:08.606Z,2.50
2018-08-04T08:38:36.990Z,4.03
2018-08-04T08:41:05.394Z,3.20
2018-08-04T08:43:33.861Z,1.83
2018-08-04T08:46:02.910Z,6.43
2018-08-04T08:48:31.321Z,2.60
2018-08-04T08:50:59.800Z,4.10
2018-08-04T08:53:28.373Z,6.33
2018-08-04T08:55:56.720Z,3.37
2018-08-04T08:58:25.130Z,1.73
2018-08-04T09:00:53.488Z,5.33
2018-08-04T09:03:21.863Z,2.97
2018-08-04T09:05:50.565Z,3.93
2018-08-04T09:08:19.041Z,3.00
2018-08-04T09:10:47.442Z,2.80
2018-08-04T09:13:16.028Z,5.00
2018-08-04T09:15:44.454Z,2.43
2018-08-04T09:18:12.791Z,2.30
2018-08-04T09:20:41.167Z,2.97
2018-08-04T09:23:09.580Z,2.50
2018-08-04T09:25:37.948Z,3.60
2018-08-04T09:28:06.317Z,3.47
2018-08-04T09:30:34.630Z,4.37
2018-08-04T09:33:03.019Z,2.90
2018-08-04T09:35:31.451Z,3.73
2018-08-04T09:37:59.781Z,5.47
2018-08-04T09:40:28.157Z,4.33
2018-08-04T09:42:56.530Z,2.37
2018-08-04T09:45:24.879Z,2.80
2018-08-04T09:47:53.235Z,3.37
2018-08-04T09:50:21.635Z,2.20
2018-08-04T09:52:49.931Z,2.93
2018-08-04T09:55:18.301Z,4.50
2018-08-04T09:57:46.684Z,4.00
2018-08-04T10:00:20.400Z,4.03
2018-08-04T10:02:48.759Z,2.40
2018-08-04T10:05:17.127Z,2.17
2018-08-04T10:07:45.495Z,4.37
2018-08-04T10:10:13.841Z,4.27
2018-08-04T10:12:42.186Z,3.07
2018-08-04T10:15:11.395Z,5.73
2018-08-04T10:17:40.082Z,2.17
2018-08-04T10:20:09.697Z,3.77
2018-08-04T10:22:38.089Z,2.87
2018-08-04T10:25:06.765Z,4.43
2018-08-04T10:27:35.169Z,3.53
2018-08-04T10:30:03.885Z,5.50
2018-08-04T10:32:32.256Z,3.93
2018-08-04T10:35:00.616Z,4.07
2018-08-04T10:37:28.978Z,4.43
2018-08-04T10:39:57.316Z,4.93
2018-08-04T10:42:25.706Z,5.10
2018-08-04T10:44:54.086Z,5.30
2018-08-04T10:47:22.451Z,4.33
2018-08-04T10:49:50.835Z,4.73
2018-08-04T10:52:19.200Z,2.23
2018-08-04T10:57:21.572Z,5.43
2018-08-04T10:59:49.921Z,6.77
2018-08-04T11:02:18.338Z,6.33
2018-08-04T11:04:46.726Z,3.73
2018-08-04T11:07:15.164Z,2.53
2018-08-04T11:09:43.484Z,2.30
2018-08-04T11:12:11.833Z,3.80
2018-08-04T11:14:40.225Z,2.83
2018-08-04T11:17:08.552Z,4.83
2018-08-04T11:19:36.877Z,4.90
2018-08-04T11:22:05.463Z,5.80
2018-08-04T11:24:33.805Z,1.97
2018-08-04T11:27:02.177Z,2.80
2018-08-04T11:29:30.524Z,5.13
2018-08-04T11:31:58.944Z,4.27
2018-08-04T11:34:27.283Z,2.63
2018-08-04T11:36:55.669Z,2.90
2018-08-04T11:39:24.717Z,2.07
2018-08-04T11:41:53.636Z,4.57
2018-08-04T11:44:22.004Z,2.97
2018-08-04T11:46:50.457Z,4.40
2018-08-04T11:49:18.811Z,3.63
2018-08-04T11:51:47.426Z,2.67
2018-08-04T11:54:15.752Z,2.23
2018-08-04T11:56:44.113Z,2.17
2018-08-04T11:59:12.469Z,3.07
2018-08-04T12:01:40.896Z,2.87
2018-08-04T12:04:09.203Z,3.27
2018-08-04T12:06:37.550Z,3.40
2018-08-04T12:09:07.037Z,2.70
2018-08-04T12:11:35.369Z,3.77
2018-08-04T12:14:03.763Z,2.37
2018-08-04T12:16:32.098Z,4.10
2018-08-04T12:19:00.168Z,2.37
2018-08-04T12:21:28.548Z,4.90
2018-08-04T12:23:56.877Z,3.83
2018-08-04T12:26:25.240Z,2.17
2018-08-04T12:28:53.578Z,2.80
2018-08-04T12:31:22.015Z,1.97
2018-08-04T12:33:50.072Z,2.27
2018-08-04T12:36:18.722Z,4.40
2018-08-04T12:38:47.332Z,2.90
2018-08-04T12:41:15.668Z,2.73
2018-08-04T12:43:44.064Z,1.97
2018-08-04T12:46:12.435Z,2.67
2018-08-04T12:48:40.785Z,3.80
2018-08-04T12:51:09.119Z,3.73
2018-08-04T12:53:37.510Z,4.70
2018-08-04T12:56:06.152Z,2.20
2018-08-04T12:58:34.502Z,2.03
2018-08-04T13:01:02.880Z,6.93
2018-08-04T13:03:31.241Z,3.67
2018-08-04T13:05:59.573Z,3.43
2018-08-04T13:08:27.913Z,6.30
2018-08-04T13:10:56.288Z,4.20
2018-08-04T13:13:24.649Z,2.80
2018-08-04T13:15:53.036Z,2.60
2018-08-04T13:18:21.448Z,3.47
2018-08-04T13:20:49.835Z,3.63
2018-08-04T13:23:18.215Z,3.07
2018-08-04T13:25:46.675Z,3.60
2018-08-04T13:28:15.018Z,3.17
2018-08-04T13:30:43.403Z,2.93
2018-08-04T13:33:11.484Z,2.93
2018-08-04T13:35:39.844Z,3.27
2018-08-04T13:38:08.221Z,6.20
2018-08-04T13:40:36.590Z,2.33
2018-08-04T13:43:04.961Z,5.27
2018-08-04T13:45:33.417Z,2.40
2018-08-04T13:48:01.785Z,3.53
2018-08-04T13:50:30.145Z,3.90
2018-08-04T13:52:58.540Z,2.63
2018-08-04T13:55:26.897Z,2.50
2018-08-04T13:57:55.255Z,4.73
2018-08-04T14:00:23.595Z,2.90
2018-08-04T14:02:53.000Z,4.43
2018-08-04T14:05:21.393Z,3.20
2018-08-04T14:07:49.753Z,7.50
2018-08-04T14:10:18.104Z,6.53
2018-08-04T14:12:46.503Z,3.10
2018-08-04T14:15:14.865Z,5.87
2018-08-04T14:17:43.210Z,4.17
2018-08-04T14:20:11.572Z,5.80
2018-08-04T14:22:40.075Z,7.93
2018-08-04T14:25:08.439Z,5.37
2018-08-04T14:27:36.799Z,6.23
2018-08-04T14:30:07.577Z,4.33
2018-08-04T14:32:36.021Z,4.07
2018-08-04T14:35:04.774Z,5.20
2018-08-04T14:37:33.552Z,5.80
2018-08-04T14:40:01.914Z,3.50
2018-08-04T14:42:30.401Z,5.83
2018-08-04T14:44:58.896Z,8.23
2018-08-04T14:47:27.261Z,5.47
2018-08-04T14:49:55.640Z,6.23
2018-08-04T14:52:23.985Z,4.93
2018-08-04T14:54:55.077Z,4.77
2018-08-04T14:57:23.637Z,6.43
2018-08-04T14:59:52.092Z,7.00
2018-08-04T15:02:20.569Z,8.43
2018-08-04T15:04:49.052Z,11.20
2018-08-04T15:07:17.483Z,4.57
2018-08-04T15:09:45.914Z,5.93
2018-08-04T15:12:14.411Z,6.17
2018-08-04T15:14:42.898Z,5.73
2018-08-04T15:17:11.329Z,7.37
2018-08-04T15:19:39.445Z,4.87
2018-08-04T15:22:07.823Z,4.50
2018-08-04T15:24:36.370Z,7.50
2018-08-04T15:27:04.937Z,5.90
2018-08-04T15:29:33.542Z,7.07
2018-08-04T15:32:02.091Z,6.17
2018-08-04T15:34:30.564Z,5.67
2018-08-04T15:36:58.916Z,6.47
2018-08-04T15:39:27.308Z,5.00
2018-08-04T15:41:55.638Z,7.03
2018-08-04T15:44:24.093Z,6.40
2018-08-04T15:46:52.389Z,3.10
2018-08-04T15:49:20.859Z,3.57
2018-08-04T15:51:49.308Z,4.47
2018-08-04T15:54:17.654Z,9.30
2018-08-04T15:56:46.092Z,8.17
2018-08-04T15:59:14.488Z,7.00
2018-08-04T16:01:42.934Z,5.90
2018-08-04T16:04:11.531Z,5.30
2018-08-04T16:06:39.951Z,5.50
2018-08-04T16:09:09.647Z,4.17
2018-08-04T16:11:38.090Z,4.10
2018-08-04T16:14:06.701Z,3.60
2018-08-04T16:16:35.059Z,4.63
2018-08-04T16:19:03.560Z,4.63
2018-08-04T16:21:31.992Z,5.53
2018-08-04T16:24:00.371Z,3.97
2018-08-04T16:26:28.851Z,4.60
2018-08-04T16:28:57.226Z,5.23
2018-08-04T16:31:25.556Z,8.13
2018-08-04T16:33:54.012Z,4.87
2018-08-04T16:36:22.323Z,5.17
2018-08-04T16:38:51.047Z,5.17
2018-08-04T16:41:19.411Z,6.77
2018-08-04T16:43:47.751Z,3.53
2018-08-04T16:46:16.115Z,4.60
2018-08-04T16:48:44.448Z,7.50
2018-08-04T16:51:12.784Z,5.33
2018-08-04T16:53:41.139Z,5.03
2018-08-04T16:56:09.819Z,7.03
2018-08-04T16:58:38.160Z,4.20
2018-08-04T17:01:06.567Z,5.90
2018-08-04T17:03:34.955Z,3.20
2018-08-04T17:06:03.313Z,3.23
2018-08-04T17:08:31.729Z,5.10
2018-08-04T17:11:00.048Z,5.83
2018-08-04T17:13:28.415Z,5.10
2018-08-04T17:15:56.776Z,4.57
2018-08-04T17:18:25.226Z,7.13
2018-08-04T17:20:53.577Z,6.70
2018-08-04T17:23:21.913Z,5.27
2018-08-04T17:25:50.257Z,6.47
2018-08-04T17:28:18.581Z,11.40
2018-08-04T17:30:46.956Z,5.37
2018-08-04T17:33:15.294Z,5.63
2018-08-04T17:35:43.767Z,6.63
2018-08-04T17:38:12.112Z,5.03
2018-08-04T17:40:40.173Z,6.50
2018-08-04T17:43:08.498Z,6.43
2018-08-04T17:45:36.827Z,5.77
2018-08-04T17:48:05.268Z,8.20
2018-08-04T17:50:33.601Z,10.90
2018-08-04T17:53:02.025Z,9.30
2018-08-04T17:55:30.504Z,8.07
2018-08-04T17:57:58.823Z,9.67
2018-08-04T18:00:27.240Z,12.00
2018-08-04T18:02:55.602Z,9.63
2018-08-04T18:05:23.963Z,9.00
2018-08-04T18:07:52.340Z,9.43
2018-08-04T18:10:20.710Z,12.70
2018-08-04T18:12:49.378Z,9.70
2018-08-04T18:15:17.729Z,10.10
2018-08-04T18:17:46.101Z,9.60
2018-08-04T18:20:14.469Z,10.77
2018-08-04T18:22:42.858Z,10.80
2018-08-04T18:25:11.241Z,11.73
2018-08-04T18:27:39.600Z,10.67
2018-08-04T18:30:07.948Z,10.07
2018-08-04T18:32:36.276Z,13.10
2018-08-04T18:35:04.734Z,9.80
2018-08-04T18:37:33.103Z,12.23
2018-08-04T18:40:01.465Z,10.33
2018-08-04T18:42:29.785Z,14.90
2018-08-04T18:44:57.874Z,10.40
2018-08-04T18:47:26.204Z,10.97
2018-08-04T18:49:54.554Z,10.37
2018-08-04T18:52:22.921Z,10.00
2018-08-04T18:54:51.317Z,9.47
2018-08-04T18:57:19.683Z,9.47
2018-08-04T18:59:48.032Z,9.17
2018-08-04T19:02:16.416Z,9.77
2018-08-04T19:04:44.772Z,12.17
2018-08-04T19:07:13.112Z,10.00
2018-08-04T19:09:41.458Z,8.03
2018-08-04T19:12:09.839Z,7.67
2018-08-04T19:14:38.187Z,9.83
2018-08-04T19:17:06.957Z,9.53
2018-08-04T19:19:35.300Z,7.70
2018-08-04T19:22:03.657Z,6.80
2018-08-04T19:24:32.036Z,7.23
2018-08-04T19:27:00.370Z,8.07
2018-08-04T19:29:28.705Z,6.90
2018-08-04T19:31:57.120Z,7.30
2018-08-04T19:34:25.457Z,5.97
2018-08-04T19:36:53.945Z,8.50
2018-08-04T19:39:22.319Z,8.87
2018-08-04T19:41:50.722Z,6.37
2018-08-04T19:44:19.144Z,5.90
2018-08-04T19:46:47.534Z,4.20
2018-08-04T19:49:15.948Z,5.40
2018-08-04T19:51:44.393Z,6.67
2018-08-04T19:54:12.757Z,7.53
2018-08-04T19:56:41.122Z,7.10
2018-08-04T19:59:09.463Z,5.73
2018-08-04T20:01:37.804Z,8.47
2018-08-04T20:04:06.244Z,5.90
2018-08-04T20:06:34.580Z,7.47
2018-08-04T20:09:03.072Z,6.30
2018-08-04T20:11:31.414Z,8.90
2018-08-04T20:13:59.753Z,9.13
2018-08-04T20:16:28.079Z,7.83
2018-08-04T20:18:56.409Z,7.33
2018-08-04T20:21:24.740Z,6.90
2018-08-04T20:23:53.100Z,9.07
2018-08-04T20:26:21.720Z,8.00
2018-08-04T20:28:50.233Z,8.33
2018-08-04T20:31:18.609Z,8.97
2018-08-04T20:33:46.971Z,9.30
2018-08-04T20:36:15.308Z,7.63
2018-08-04T20:38:43.711Z,13.40
2018-08-04T20:41:12.064Z,11.13
2018-08-04T20:43:40.535Z,9.57
2018-08-04T20:46:09.712Z,9.90
2018-08-04T20:48:38.516Z,8.63
2018-08-04T20:51:06.857Z,8.37
2018-08-04T20:53:35.627Z,6.47
2018-08-04T20:56:04.379Z,7.13
2018-08-04T20:58:32.899Z,10.30
2018-08-04T21:01:12.629Z,14.37
2018-08-04T21:03:40.989Z,7.50
2018-08-04T21:06:09.359Z,8.23
2018-08-04T21:08:37.769Z,13.37
2018-08-04T21:11:05.816Z,8.70
2018-08-04T21:13:34.170Z,10.27
2018-08-04T21:16:02.539Z,11.70
2018-08-04T21:18:30.910Z,10.47
2018-08-04T21:20:59.323Z,10.30
2018-08-04T21:23:27.731Z,13.33
2018-08-04T21:25:56.080Z,10.43
2018-08-04T21:28:24.427Z,8.37
2018-08-04T21:30:52.494Z,10.77
2018-08-04T21:33:20.849Z,9.63
2018-08-04T21:35:49.371Z,9.27
2018-08-04T21:38:17.660Z,13.07
2018-08-04T21:40:46.012Z,8.87
2018-08-04T21:43:14.388Z,10.60
2018-08-04T21:45:42.829Z,10.10
2018-08-04T21:48:11.160Z,9.97
2018-08-04T21:50:39.574Z,12.73
2018-08-04T21:53:07.848Z,10.67
2018-08-04T21:55:36.198Z,9.27
2018-08-04T21:58:04.603Z,9.80
2018-08-04T22:00:32.963Z,8.47
2018-08-04T22:03:02.560Z,11.67
2018-08-04T22:05:31.381Z,8.63
2018-08-04T22:08:12.242Z,11.27
2018-08-04T22:10:40.617Z,7.87
2018-08-04T22:13:09.051Z,12.97
2018-08-04T22:15:37.367Z,13.27
2018-08-04T22:18:05.821Z,11.87
2018-08-04T22:20:34.209Z,9.90
2018-08-04T22:23:02.519Z,7.63
2018-08-04T22:25:31.108Z,7.00
2018-08-04T22:27:59.793Z,10.50
2018-08-04T22:30:28.158Z,10.17
2018-08-04T22:32:56.560Z,8.77
2018-08-04T22:35:24.923Z,8.67
2018-08-04T22:37:53.337Z,10.77
2018-08-04T22:40:22.084Z,10.97
2018-08-04T22:42:50.442Z,9.47
2018-08-04T22:46:21.840Z,10.60
2018-08-04T22:48:51.460Z,7.90
2018-08-04T22:51:25.378Z,9.27
2018-08-04T22:53:53.784Z,8.73
2018-08-04T22:56:22.192Z,8.63
2018-08-04T22:58:50.868Z,10.80
2018-08-04T23:01:19.207Z,10.50
2018-08-04T23:06:15.991Z,13.07
2018-08-04T23:08:44.424Z,8.07
2018-08-04T23:11:12.760Z,8.50
2018-08-04T23:13:41.132Z,10.70
2018-08-04T23:16:09.491Z,11.50
2018-08-04T23:18:37.881Z,10.23
2018-08-04T23:21:06.527Z,11.97
2018-08-04T23:23:37.017Z,8.77
2018-08-04T23:26:06.080Z,8.20
2018-08-04T23:28:34.586Z,12.27
2018-08-04T23:31:02.948Z,11.13
2018-08-04T23:33:31.318Z,16.97
2018-08-04T23:35:59.689Z,10.20
2018-08-04T23:38:28.090Z,12.97
2018-08-04T23:40:56.545Z,11.33
2018-08-04T23:43:24.950Z,13.03
2018-08-04T23:45:53.330Z,11.30
2018-08-04T23:48:21.696Z,12.40
2018-08-04T23:50:50.076Z,11.93
2018-08-04T23:53:18.468Z,13.37
2018-08-04T23:55:46.945Z,11.43
2018-08-04T23:58:15.293Z,10.63
